Time;durP1;ratioP1;P1;durP2;ratioP2;P2;SDS_P1;SDS_P2;PMS_P1;PMS_P2;Temp;Humidity;BMP_temperature;BMP_pressure;BME280_temperature;BME280_humidity;BME280_pressure;Samples;Min_cycle;Max_cycle;Signal;HPM_P1;HPM_P2
2021/05/31 00:00:00;;;;;;;26.20;13.00;;;19.40;58.40;;;;;;5074946;28;20055;-56
2021/05/31 00:02:28;;;;;;;23.70;13.35;;;19.50;59.20;;;;;;5074745;28;20033;-64
2021/05/31 00:04:55;;;;;;;28.88;15.23;;;19.70;59.70;;;;;;5075526;28;20033;-62
2021/05/31 00:07:22;;;;;;;28.52;11.68;;;19.70;59.80;;;;;;5074818;28;20027;-57
2021/05/31 00:09:55;;;;;;;30.45;14.25;;;19.80;57.50;;;;;;5075320;28;20031;-65
2021/05/31 00:12:23;;;;;;;27.55;13.93;;;19.90;58.10;;;;;;5073250;28;20059;-62
2021/05/31 00:14:51;;;;;;;28.15;13.98;;;19.90;59.60;;;;;;5075194;28;20027;-62
2021/05/31 00:17:19;;;;;;;28.23;13.10;;;19.90;59.60;;;;;;5074767;28;20032;-60
2021/05/31 00:19:48;;;;;;;21.10;10.80;;;20.00;60.40;;;;;;5075221;28;20028;-49
2021/05/31 00:22:15;;;;;;;28.13;14.68;;;20.10;57.30;;;;;;5073344;28;20032;-53
2021/05/31 00:24:42;;;;;;;19.35;10.95;;;20.20;59.60;;;;;;5074780;28;20028;-64
2021/05/31 00:27:10;;;;;;;28.02;12.60;;;20.40;57.10;;;;;;5073539;28;20462;-59
2021/05/31 00:29:37;;;;;;;19.52;11.57;;;20.60;57.50;;;;;;5073559;28;20383;-64
2021/05/31 00:32:05;;;;;;;24.73;11.60;;;20.70;57.70;;;;;;5074772;28;20025;-54
2021/05/31 00:34:32;;;;;;;20.00;10.98;;;20.90;57.10;;;;;;5074615;28;20082;-54
2021/05/31 00:36:59;;;;;;;22.88;12.57;;;20.90;57.10;;;;;;5073041;28;20029;-61
2021/05/31 00:39:27;;;;;;;17.63;9.98;;;21.00;57.10;;;;;;5074484;28;20112;-55
2021/05/31 00:41:55;;;;;;;21.25;12.68;;;21.10;56.40;;;;;;5074852;28;20038;-60
2021/05/31 00:44:23;;;;;;;19.70;10.95;;;21.20;57.20;;;;;;5074259;28;20055;-63
2021/05/31 00:46:53;;;;;;;20.20;9.82;;;21.20;57.00;;;;;;5074069;28;20328;-62
2021/05/31 00:49:25;;;;;;;15.43;8.55;;;21.40;55.30;;;;;;5074446;28;20028;-61
2021/05/31 00:51:53;;;;;;;20.08;9.77;;;21.50;53.80;;;;;;5074127;28;20036;-56
2021/05/31 00:54:22;;;;;;;18.25;9.27;;;21.40;55.80;;;;;;5073953;28;20032;-60
2021/05/31 00:56:51;;;;;;;17.95;9.95;;;21.50;55.90;;;;;;5073974;28;20443;-51
2021/05/31 00:59:18;;;;;;;15.88;9.38;;;21.60;56.10;;;;;;5073885;28;20036;-57
2021/05/31 01:01:47;;;;;;;16.70;10.38;;;21.70;55.40;;;;;;5074416;28;20024;-64
2021/05/31 01:04:15;;;;;;;18.20;10.90;;;21.70;55.30;;;;;;5072827;28;20024;-56
2021/05/31 01:06:59;;;;;;;18.55;9.75;;;21.90;55.90;;;;;;5073448;28;20024;-60
2021/05/31 01:09:36;;;;;;;18.10;8.88;;;22.00;55.20;;;;;;5073982;28;20052;-57
2021/05/31 01:12:14;;;;;;;15.63;8.68;;;22.00;53.80;;;;;;5073447;28;20044;-57
2021/05/31 01:14:55;;;;;;;11.25;7.25;;;22.10;54.80;;;;;;5073290;28;20106;-61
2021/05/31 01:17:33;;;;;;;16.42;7.07;;;22.00;54.30;;;;;;5073695;28;20039;-54
2021/05/31 01:20:17;;;;;;;16.05;8.98;;;22.10;54.90;;;;;;5073645;28;20076;-52
2021/05/31 01:22:47;;;;;;;14.10;7.43;;;22.20;54.40;;;;;;5072188;28;20108;-61
2021/05/31 01:25:45;;;;;;;15.45;8.43;;;22.30;54.90;;;;;;5073584;28;20031;-51
2021/05/31 01:28:12;;;;;;;15.23;8.18;;;22.20;53.90;;;;;;5073341;28;20028;-59
2021/05/31 01:30:44;;;;;;;17.38;7.30;;;22.30;54.00;;;;;;5073367;28;20117;-59
2021/05/31 01:33:17;;;;;;;12.50;6.65;;;22.30;55.20;;;;;;5073385;28;20609;-52
2021/05/31 01:35:45;;;;;;;12.85;6.75;;;22.30;54.20;;;;;;5073163;28;20483;-54
2021/05/31 01:38:16;;;;;;;19.63;6.82;;;22.40;52.90;;;;;;5073374;28;20040;-60
2021/05/31 01:40:44;;;;;;;12.15;6.13;;;22.40;53.40;;;;;;5072713;28;20016;-62
2021/05/31 01:43:12;;;;;;;10.20;6.68;;;22.50;53.60;;;;;;5073248;28;20033;-57
2021/05/31 01:45:40;;;;;;;10.85;7.07;;;22.50;54.10;;;;;;5073596;28;20028;-53
2021/05/31 01:48:09;;;;;;;11.93;6.57;;;22.40;54.70;;;;;;5072229;28;20021;-58
2021/05/31 01:50:38;;;;;;;12.80;5.72;;;22.40;54.60;;;;;;5071059;28;20032;-60
2021/05/31 01:53:06;;;;;;;8.88;4.97;;;22.50;52.30;;;;;;5073076;28;20536;-60
2021/05/31 01:55:38;;;;;;;12.52;7.25;;;22.40;52.10;;;;;;5072820;28;20467;-60
2021/05/31 01:58:05;;;;;;;;;;;22.40;54.70;;;;;;5072011;28;20031;-54
2021/05/31 02:00:33;;;;;;;10.10;6.63;;;22.40;54.20;;;;;;5070955;28;20378;-56
2021/05/31 02:03:03;;;;;;;12.65;6.78;;;22.40;55.10;;;;;;5072814;28;20442;-52
2021/05/31 02:05:30;;;;;;;11.90;5.70;;;22.40;54.60;;;;;;5072729;28;20021;-62
2021/05/31 02:07:57;;;;;;;23.00;6.05;;;22.50;53.90;;;;;;5072611;28;20024;-57
2021/05/31 02:10:25;;;;;;;13.00;6.05;;;22.60;54.60;;;;;;5064728;28;20418;-54
2021/05/31 02:13:01;;;;;;;13.07;5.82;;;22.60;53.60;;;;;;5070277;28;20529;-60
2021/05/31 02:15:43;;;;;;;9.48;6.00;;;22.60;54.70;;;;;;5071546;28;20055;-51
2021/05/31 02:18:23;;;;;;;;;;;22.60;54.20;;;;;;5072311;28;20028;-57
2021/05/31 02:20:55;;;;;;;13.18;5.43;;;22.80;53.60;;;;;;5071255;28;20377;-59
2021/05/31 02:23:23;;;;;;;8.90;4.13;;;22.80;52.50;;;;;;5069942;28;20036;-60
2021/05/31 02:25:52;;;;;;;10.75;6.20;;;22.90;52.40;;;;;;5071703;28;20032;-57
2021/05/31 02:28:19;;;;;;;9.85;4.65;;;22.70;54.50;;;;;;5069943;28;20024;-54
2021/05/31 02:30:46;;;;;;;10.35;5.07;;;22.70;53.80;;;;;;5071151;28;20135;-51
2021/05/31 02:33:14;;;;;;;12.63;5.90;;;22.80;53.40;;;;;;5071457;28;20020;-56
2021/05/31 02:35:41;;;;;;;9.20;3.88;;;22.80;54.90;;;;;;5070885;28;20471;-56
2021/05/31 02:38:09;;;;;;;11.95;5.18;;;22.80;52.60;;;;;;5071287;28;20024;-57
2021/05/31 02:40:37;;;;;;;7.38;4.68;;;22.90;54.10;;;;;;5068572;28;20490;-54
2021/05/31 02:43:10;;;;;;;6.93;4.30;;;22.90;54.00;;;;;;5071644;28;20025;-57
2021/05/31 02:45:38;;;;;;;8.98;5.13;;;22.80;54.00;;;;;;5071712;28;20091;-61
2021/05/31 02:48:06;;;;;;;8.88;4.40;;;22.70;54.90;;;;;;5071697;28;20028;-56
2021/05/31 02:50:34;;;;;;;6.85;3.33;;;22.60;54.80;;;;;;5071095;28;20094;-64
2021/05/31 02:53:03;;;;;;;8.02;3.83;;;22.60;53.10;;;;;;5071371;28;20025;-59
2021/05/31 02:55:32;;;;;;;6.45;3.83;;;22.80;52.70;;;;;;5070683;28;20054;-56
2021/05/31 02:58:00;;;;;;;9.32;3.88;;;22.90;52.50;;;;;;5071740;28;20032;-54
2021/05/31 03:00:29;;;;;;;7.05;4.10;;;23.00;52.70;;;;;;5069695;28;20032;-57
2021/05/31 03:02:57;;;;;;;10.05;3.40;;;23.00;53.10;;;;;;5069732;28;20020;-54
2021/05/31 03:05:28;;;;;;;7.72;3.47;;;23.00;53.70;;;;;;5070943;28;20081;-59
2021/05/31 03:07:57;;;;;;;14.48;4.80;;;23.10;52.70;;;;;;5071117;28;20032;-54
2021/05/31 03:10:25;;;;;;;7.90;4.05;;;23.10;53.60;;;;;;5070937;28;20094;-63
2021/05/31 03:12:53;;;;;;;12.65;4.18;;;23.10;53.50;;;;;;4971181;28;2836205;-62
2021/05/31 03:15:22;;;;;;;8.00;4.32;;;23.20;53.70;;;;;;5071869;28;20032;-54
2021/05/31 03:17:51;;;;;;;8.75;4.10;;;23.10;54.00;;;;;;5071685;28;20025;-56
2021/05/31 03:20:21;;;;;;;7.38;3.63;;;23.20;53.70;;;;;;5071857;28;20213;-57
2021/05/31 03:22:48;;;;;;;10.55;3.65;;;23.30;53.20;;;;;;5071255;28;20440;-52
2021/05/31 03:25:16;;;;;;;6.25;3.28;;;23.50;52.30;;;;;;5072360;28;20017;-50
2021/05/31 03:27:43;;;;;;;5.53;3.40;;;23.70;51.30;;;;;;5072002;28;20055;-53
2021/05/31 03:30:13;;;;;;;6.18;2.88;;;23.80;52.30;;;;;;5071896;28;20067;-46
2021/05/31 03:32:41;;;;;;;4.10;2.53;;;23.90;49.60;;;;;;5071489;28;20121;-52
2021/05/31 03:35:10;;;;;;;7.68;3.55;;;23.90;49.80;;;;;;5071479;28;20046;-55
2021/05/31 03:37:39;;;;;;;8.05;3.70;;;23.90;51.40;;;;;;5071954;28;20365;-59
2021/05/31 03:40:11;;;;;;;7.97;3.00;;;23.80;51.40;;;;;;5071829;28;20024;-55
2021/05/31 03:42:39;;;;;;;7.57;2.67;;;23.70;50.20;;;;;;5071406;28;20028;-54
2021/05/31 03:45:08;;;;;;;5.90;3.75;;;23.70;51.20;;;;;;5070950;28;20036;-53
2021/05/31 03:47:37;;;;;;;6.47;3.15;;;23.60;51.30;;;;;;5071776;28;20474;-51
2021/05/31 03:50:04;;;;;;;11.60;2.90;;;23.40;52.70;;;;;;5070873;28;20380;-57
2021/05/31 03:52:32;;;;;;;7.25;3.47;;;23.10;52.90;;;;;;5071490;28;20104;-59
2021/05/31 03:55:00;;;;;;;8.02;3.08;;;23.00;54.10;;;;;;5071633;28;20021;-54
2021/05/31 03:57:27;;;;;;;7.20;3.20;;;23.00;53.90;;;;;;5071016;28;20024;-56
2021/05/31 03:59:55;;;;;;;11.73;3.58;;;23.00;54.00;;;;;;5071364;28;20483;-60
2021/05/31 04:02:22;;;;;;;3.58;2.15;;;22.90;52.60;;;;;;5071438;28;20020;-54
2021/05/31 04:04:52;;;;;;;6.63;2.85;;;23.00;51.60;;;;;;5070703;28;20052;-56
2021/05/31 04:12:36;;;;;;;3.97;2.38;;;23.10;54.00;;;;;;5074433;28;20077;-62
2021/05/31 04:15:05;;;;;;;7.45;3.30;;;23.10;54.00;;;;;;5074297;28;20021;-61
2021/05/31 04:17:32;;;;;;;3.60;2.67;;;23.10;52.40;;;;;;5074979;28;20029;-53
2021/05/31 04:20:00;;;;;;;6.97;2.25;;;23.20;53.60;;;;;;5074448;28;20043;-63
2021/05/31 04:22:27;;;;;;;6.65;2.35;;;23.10;52.20;;;;;;5074341;28;20111;-62
2021/05/31 04:24:55;;;;;;;5.65;2.30;;;23.30;52.70;;;;;;5074718;28;20039;-60
2021/05/31 04:27:22;;;;;;;10.77;3.05;;;23.40;53.50;;;;;;5074623;28;20031;-56
2021/05/31 04:29:51;;;;;;;10.32;6.65;;;23.40;51.10;;;;;;5074152;28;20141;-65
2021/05/31 04:32:18;;;;;;;37.15;21.45;;;23.40;51.30;;;;;;5074351;28;20109;-62
2021/05/31 04:34:46;;;;;;;42.53;24.15;;;23.50;51.00;;;;;;5066234;28;20025;-55
2021/05/31 04:37:13;;;;;;;102.32;60.55;;;23.60;53.10;;;;;;5075484;28;20029;-49
2021/05/31 04:39:40;;;;;;;76.93;45.17;;;23.60;53.20;;;;;;5070017;28;20443;-49
2021/05/31 04:42:08;;;;;;;104.78;62.13;;;23.60;52.10;;;;;;5074410;28;20035;-46
2021/05/31 04:44:36;;;;;;;79.45;47.97;;;23.50;53.30;;;;;;5071634;28;20059;-52
2021/05/31 04:47:05;;;;;;;103.63;58.80;;;23.50;51.00;;;;;;5071570;28;20168;-56
2021/05/31 04:49:33;;;;;;;90.20;50.90;;;23.40;53.50;;;;;;5070162;28;20020;-48
2021/05/31 04:52:01;;;;;;;74.70;39.63;;;23.50;53.00;;;;;;5068948;28;20498;-53
2021/05/31 04:54:29;;;;;;;75.63;42.25;;;23.60;51.00;;;;;;5071187;28;20029;-54
2021/05/31 04:56:57;;;;;;;75.70;41.78;;;23.70;52.10;;;;;;5071191;28;20506;-56
2021/05/31 04:59:24;;;;;;;86.43;45.92;;;23.70;52.30;;;;;;5072131;28;20132;-57
2021/05/31 05:01:52;;;;;;;77.30;45.70;;;23.70;52.50;;;;;;5068693;28;20070;-54
2021/05/31 05:04:19;;;;;;;78.95;45.40;;;23.70;52.70;;;;;;5068927;28;20036;-56
2021/05/31 05:06:47;;;;;;;84.82;50.80;;;23.60;53.00;;;;;;5069281;28;20020;-65
2021/05/31 05:09:14;;;;;;;82.45;49.92;;;23.50;52.80;;;;;;5073522;28;20482;-54
2021/05/31 05:11:42;;;;;;;82.70;51.88;;;23.50;52.80;;;;;;5073707;28;20048;-57
2021/05/31 05:14:09;;;;;;;88.57;53.13;;;23.40;53.70;;;;;;5073702;28;20034;-61
2021/05/31 05:16:36;;;;;;;86.93;52.95;;;23.30;53.30;;;;;;5072866;28;20032;-67
2021/05/31 05:19:04;;;;;;;88.40;51.08;;;23.20;53.70;;;;;;5073238;28;20047;-61
2021/05/31 05:21:31;;;;;;;78.30;47.67;;;23.10;54.30;;;;;;5073528;28;20032;-54
2021/05/31 05:23:58;;;;;;;68.50;41.08;;;23.10;53.80;;;;;;5072456;28;20111;-58
2021/05/31 05:26:26;;;;;;;67.05;42.92;;;23.10;53.60;;;;;;5072143;28;20021;-54
2021/05/31 05:28:53;;;;;;;84.60;51.38;;;23.00;54.10;;;;;;5073604;28;20065;-67
2021/05/31 05:31:20;;;;;;;75.05;48.70;;;22.90;54.70;;;;;;5073140;28;20387;-62
2021/05/31 05:33:48;;;;;;;84.03;50.40;;;22.90;54.50;;;;;;5072565;28;20029;-56
2021/05/31 05:36:31;;;;;;;82.03;51.38;;;22.70;55.10;;;;;;5073484;28;20028;-59
2021/05/31 05:42:20;;;;;;;;;;;22.50;55.20;;;;;;5031407;28;20113;-63
2021/05/31 05:50:03;;;;;;;82.25;48.13;;;21.70;57.30;;;;;;5072584;28;20090;-64
2021/05/31 05:52:31;;;;;;;77.10;47.65;;;21.50;57.80;;;;;;5073218;28;20031;-65
2021/05/31 05:54:58;;;;;;;71.05;42.30;;;21.30;58.50;;;;;;5073772;28;20394;-61
2021/05/31 05:57:25;;;;;;;74.97;46.45;;;21.20;58.70;;;;;;5073148;28;20020;-66
2021/05/31 05:59:53;;;;;;;68.95;42.88;;;21.00;59.60;;;;;;5072968;28;20100;-58
2021/05/31 06:02:20;;;;;;;63.53;38.70;;;20.70;59.60;;;;;;5073013;28;20031;-57
2021/05/31 06:04:47;;;;;;;79.13;43.85;;;20.70;60.00;;;;;;5072132;28;20024;-64
2021/05/31 06:07:15;;;;;;;62.05;36.88;;;20.50;61.20;;;;;;5071420;28;20020;-64
2021/05/31 06:09:42;;;;;;;69.32;44.17;;;20.40;60.70;;;;;;5073054;28;20017;-67
2021/05/31 06:12:09;;;;;;;69.53;41.88;;;20.30;61.90;;;;;;5070635;28;20053;-62
2021/05/31 06:14:37;;;;;;;70.97;40.55;;;20.10;62.30;;;;;;5072651;28;20029;-58
2021/05/31 06:17:04;;;;;;;60.80;34.00;;;20.00;62.70;;;;;;5073179;28;20029;-67
2021/05/31 06:19:32;;;;;;;65.88;41.30;;;19.90;62.30;;;;;;5072324;28;20532;-68
2021/05/31 06:21:59;;;;;;;70.03;38.97;;;19.80;63.40;;;;;;5070962;28;20028;-64
2021/05/31 06:24:26;;;;;;;71.50;41.55;;;19.70;63.30;;;;;;5072330;28;20101;-66
2021/05/31 06:26:54;;;;;;;63.75;41.13;;;19.70;64.10;;;;;;5063009;28;20028;-49
2021/05/31 06:29:21;;;;;;;61.88;38.45;;;19.60;63.90;;;;;;5067975;28;20313;-51
2021/05/31 06:31:49;;;;;;;59.08;34.58;;;19.60;64.40;;;;;;5069671;28;20545;-48
2021/05/31 06:34:16;;;;;;;60.80;36.13;;;19.50;64.10;;;;;;5068906;28;20038;-48
2021/05/31 06:36:45;;;;;;;60.88;37.45;;;19.50;64.50;;;;;;5069504;28;20036;-50
2021/05/31 06:39:12;;;;;;;53.55;34.88;;;19.50;64.80;;;;;;5065042;28;20132;-46
2021/05/31 06:41:40;;;;;;;60.72;38.38;;;19.40;64.90;;;;;;5068305;28;20047;-47
2021/05/31 06:44:08;;;;;;;59.25;36.72;;;19.40;65.20;;;;;;5065406;28;20467;-56
2021/05/31 06:46:35;;;;;;;61.55;36.92;;;19.30;65.50;;;;;;5069049;28;20056;-54
2021/05/31 06:49:02;;;;;;;54.92;34.10;;;19.30;65.70;;;;;;5065100;28;20028;-47
2021/05/31 06:51:30;;;;;;;47.20;27.80;;;19.30;65.70;;;;;;5069127;28;20037;-50
2021/05/31 06:53:57;;;;;;;58.50;35.67;;;19.20;65.50;;;;;;5067536;28;20024;-48
2021/05/31 06:56:25;;;;;;;53.83;34.72;;;19.20;66.20;;;;;;5068806;28;20035;-48
2021/05/31 06:58:52;;;;;;;56.47;33.97;;;19.10;66.30;;;;;;5065129;28;20494;-50
2021/05/31 07:01:20;;;;;;;56.95;33.78;;;19.10;66.40;;;;;;5069564;28;20031;-49
2021/05/31 07:03:47;;;;;;;60.30;35.33;;;19.10;66.60;;;;;;5069123;28;20119;-48
2021/05/31 07:06:15;;;;;;;55.70;34.25;;;19.10;66.70;;;;;;5068236;28;20463;-50
2021/05/31 07:08:42;;;;;;;51.55;33.50;;;19.00;66.90;;;;;;5061899;28;20036;-60
2021/05/31 07:11:15;;;;;;;54.75;33.30;;;19.00;67.10;;;;;;5068772;28;20074;-49
2021/05/31 07:13:46;;;;;;;49.60;29.90;;;19.00;67.20;;;;;;5066729;28;20021;-51
2021/05/31 07:16:16;;;;;;;55.22;32.60;;;19.00;67.10;;;;;;5064981;28;20024;-50
2021/05/31 07:18:44;;;;;;;56.33;33.22;;;19.00;67.30;;;;;;5061492;28;20028;-53
2021/05/31 07:21:13;;;;;;;50.53;32.30;;;18.90;67.40;;;;;;5069001;28;20024;-57
2021/05/31 07:23:40;;;;;;;47.22;30.30;;;18.90;67.40;;;;;;5068674;28;20077;-60
2021/05/31 07:26:08;;;;;;;54.22;32.22;;;18.90;67.50;;;;;;5071929;28;20116;-64
2021/05/31 07:28:35;;;;;;;47.17;28.73;;;18.80;67.50;;;;;;5071457;28;20359;-63
2021/05/31 07:31:03;;;;;;;46.97;28.80;;;18.70;67.00;;;;;;5069996;28;20364;-61
2021/05/31 07:33:30;;;;;;;28.45;17.05;;;18.60;66.70;;;;;;5070939;28;20104;-55
2021/05/31 07:36:01;;;;;;;45.63;31.35;;;18.50;66.30;;;;;;5071601;28;20024;-61
2021/05/31 07:38:29;;;;;;;50.22;33.35;;;18.50;68.70;;;;;;5071239;28;20027;-51
2021/05/31 07:40:56;;;;;;;30.55;17.90;;;18.40;69.00;;;;;;5070867;28;20375;-52
2021/05/31 07:43:24;;;;;;;45.28;28.67;;;18.30;67.00;;;;;;5071333;28;20104;-62
2021/05/31 07:45:51;;;;;;;49.13;29.83;;;18.20;69.20;;;;;;5072128;28;20100;-60
2021/05/31 07:48:19;;;;;;;30.88;14.85;;;18.20;69.50;;;;;;5074543;28;20035;-55
2021/05/31 07:50:46;;;;;;;33.53;19.95;;;18.00;68.10;;;;;;5073368;28;20124;-63
2021/05/31 07:53:20;;;;;;;44.70;24.05;;;18.10;69.50;;;;;;5074543;28;20024;-53
2021/05/31 07:55:47;;;;;;;47.45;23.20;;;18.10;69.40;;;;;;5074996;28;20030;-58
2021/05/31 07:58:15;;;;;;;47.05;28.55;;;18.00;69.30;;;;;;5075060;28;20031;-56
2021/05/31 08:00:42;;;;;;;25.33;13.20;;;18.00;70.10;;;;;;5074180;28;20383;-57
2021/05/31 08:03:10;;;;;;;26.92;14.35;;;17.90;69.20;;;;;;5074413;28;20028;-60
2021/05/31 08:05:37;;;;;;;28.75;14.13;;;17.80;68.70;;;;;;5074696;28;20112;-56
2021/05/31 08:08:05;;;;;;;25.77;12.98;;;17.90;70.10;;;;;;5074368;28;20486;-51
2021/05/31 08:10:32;;;;;;;21.25;13.00;;;17.80;69.70;;;;;;5074247;28;20170;-56
2021/05/31 08:12:59;;;;;;;31.42;14.50;;;17.80;70.50;;;;;;5074491;28;20044;-58
2021/05/31 08:15:27;;;;;;;27.00;8.68;;;17.80;69.80;;;;;;5074118;28;20024;-60
2021/05/31 08:17:54;;;;;;;22.48;13.77;;;17.60;70.20;;;;;;5074085;28;20027;-61
2021/05/31 08:20:22;;;;;;;38.28;14.57;;;17.60;71.40;;;;;;5074279;28;20096;-59
2021/05/31 08:22:49;;;;;;;32.45;19.85;;;17.70;71.20;;;;;;5073889;28;20497;-61
2021/05/31 08:25:17;;;;;;;35.75;22.88;;;17.80;71.20;;;;;;5074216;28;20048;-53
2021/05/31 08:27:46;;;;;;;34.20;20.10;;;17.90;72.00;;;;;;5073814;28;20024;-58
2021/05/31 08:30:14;;;;;;;43.42;22.70;;;17.90;71.80;;;;;;5074380;28;20021;-54
2021/05/31 08:32:41;;;;;;;41.67;22.33;;;18.00;71.70;;;;;;5074123;28;20032;-59
2021/05/31 08:35:09;;;;;;;28.33;13.68;;;17.90;72.10;;;;;;5074480;28;20020;-50
2021/05/31 08:37:36;;;;;;;31.17;18.17;;;17.80;71.60;;;;;;5074747;28;20029;-58
2021/05/31 08:40:06;;;;;;;31.17;12.93;;;17.90;71.30;;;;;;5074454;28;20024;-60
2021/05/31 08:42:41;;;;;;;25.35;11.00;;;17.70;71.40;;;;;;5073827;28;20459;-61
2021/05/31 08:45:14;;;;;;;34.85;16.17;;;17.70;71.40;;;;;;5066668;28;20116;-51
2021/05/31 08:47:44;;;;;;;33.85;19.42;;;17.50;72.70;;;;;;5072495;28;20103;-51
2021/05/31 08:50:16;;;;;;;27.33;16.35;;;17.60;73.20;;;;;;5068597;28;20059;-50
2021/05/31 08:52:44;;;;;;;29.75;17.33;;;17.80;72.30;;;;;;5066079;28;20046;-57
2021/05/31 08:55:16;;;;;;;28.20;14.02;;;17.80;72.40;;;;;;5070272;28;20402;-50
2021/05/31 08:57:47;;;;;;;31.10;17.17;;;17.70;73.10;;;;;;5068766;28;20674;-51
2021/05/31 09:00:16;;;;;;;28.42;14.07;;;17.60;73.70;;;;;;5064542;28;20043;-53
2021/05/31 09:02:44;;;;;;;25.42;12.50;;;17.40;73.80;;;;;;5068540;28;20024;-51
2021/05/31 09:05:12;;;;;;;32.28;13.57;;;17.40;73.80;;;;;;5069136;28;20059;-51
2021/05/31 09:07:39;;;;;;;22.45;10.48;;;17.30;74.30;;;;;;5067058;28;20090;-53
2021/05/31 09:10:08;;;;;;;26.83;15.98;;;17.20;74.40;;;;;;5067711;28;20036;-54
2021/05/31 09:12:37;;;;;;;28.67;13.02;;;17.30;76.80;;;;;;5070813;28;20057;-55
2021/05/31 09:15:10;;;;;;;26.05;12.82;;;17.30;75.50;;;;;;5070395;28;20383;-53
2021/05/31 09:17:40;;;;;;;25.02;13.25;;;17.40;75.20;;;;;;5071302;28;20033;-54
2021/05/31 09:20:09;;;;;;;34.30;16.40;;;17.30;75.60;;;;;;5067789;28;20119;-52
2021/05/31 09:22:50;;;;;;;31.75;14.55;;;17.40;76.30;;;;;;5070337;28;20490;-58
2021/05/31 09:25:31;;;;;;;32.05;14.25;;;17.60;75.00;;;;;;5069470;28;20029;-57
2021/05/31 09:28:01;;;;;;;25.92;13.90;;;17.70;74.80;;;;;;5069319;28;20016;-60
2021/05/31 09:30:46;;;;;;;25.73;14.40;;;17.80;75.00;;;;;;5063600;28;20101;-57
2021/05/31 09:33:16;;;;;;;27.30;15.90;;;17.90;75.50;;;;;;5069135;28;20052;-55
2021/05/31 09:35:45;;;;;;;29.15;14.32;;;18.00;76.20;;;;;;5068359;28;20024;-57
2021/05/31 09:38:15;;;;;;;34.95;14.98;;;18.00;76.10;;;;;;5070720;28;20063;-56
2021/05/31 09:40:56;;;;;;;26.88;15.02;;;18.00;75.30;;;;;;5068754;28;20028;-63
2021/05/31 09:43:27;;;;;;;23.52;14.63;;;18.10;74.90;;;;;;5070982;28;20025;-57
2021/05/31 09:45:54;;;;;;;30.30;14.70;;;18.10;74.80;;;;;;5070640;28;20028;-56
2021/05/31 09:48:31;;;;;;;26.02;14.15;;;18.10;75.00;;;;;;5069805;28;20024;-55
2021/05/31 09:51:00;;;;;;;29.30;13.98;;;18.00;74.80;;;;;;5067522;28;20036;-54
2021/05/31 09:53:38;;;;;;;31.73;15.75;;;18.10;75.80;;;;;;5070416;28;20035;-51
2021/05/31 09:56:18;;;;;;;31.20;13.98;;;18.00;75.90;;;;;;5069389;28;20040;-53
2021/05/31 09:59:01;;;;;;;32.58;14.00;;;18.10;76.30;;;;;;5070380;28;20375;-55
2021/05/31 10:01:43;;;;;;;30.67;13.80;;;18.10;76.70;;;;;;5068374;28;20090;-51
2021/05/31 10:04:25;;;;;;;24.48;13.20;;;18.20;76.50;;;;;;5066228;28;20064;-57
2021/05/31 10:09:38;;;;;;;29.55;13.60;;;18.10;76.60;;;;;;5061711;28;20063;-55
2021/05/31 10:12:05;;;;;;;36.42;12.73;;;18.10;77.10;;;;;;5068176;28;20053;-52
2021/05/31 10:14:33;;;;;;;44.03;14.10;;;18.10;77.90;;;;;;5069743;28;20028;-52
2021/05/31 10:17:00;;;;;;;28.42;12.65;;;18.10;78.20;;;;;;5069995;28;20032;-54
2021/05/31 10:19:28;;;;;;;21.55;12.60;;;18.20;78.20;;;;;;5066419;28;20398;-47
2021/05/31 10:21:56;;;;;;;33.50;13.13;;;18.20;77.90;;;;;;5068537;28;20032;-54
2021/05/31 10:24:24;;;;;;;23.10;11.93;;;18.20;77.70;;;;;;5069746;28;20107;-56
2021/05/31 10:26:52;;;;;;;26.77;12.05;;;18.20;78.10;;;;;;5070243;28;20112;-47
2021/05/31 10:29:20;;;;;;;27.70;13.20;;;18.10;78.30;;;;;;5066340;28;20028;-46
2021/05/31 10:31:47;;;;;;;24.23;11.48;;;18.10;78.30;;;;;;5069678;28;20050;-50
2021/05/31 10:34:18;;;;;;;31.05;13.23;;;18.10;78.60;;;;;;5069678;28;20100;-48
2021/05/31 10:36:50;;;;;;;27.13;11.48;;;18.10;79.20;;;;;;5067144;28;20479;-51
2021/05/31 10:39:28;;;;;;;27.20;11.57;;;18.10;79.40;;;;;;5067806;28;20060;-59
2021/05/31 10:42:08;;;;;;;25.63;12.00;;;18.10;78.80;;;;;;5069726;28;20273;-53
2021/05/31 10:44:36;;;;;;;25.45;11.57;;;18.10;79.00;;;;;;5069456;28;20033;-51
2021/05/31 10:47:13;;;;;;;33.70;12.90;;;18.00;79.50;;;;;;5069781;28;20106;-51
2021/05/31 10:49:40;;;;;;;31.80;15.23;;;17.70;79.30;;;;;;5064717;28;20029;-50
2021/05/31 10:52:19;;;;;;;33.22;17.10;;;17.60;77.00;;;;;;5069701;28;20040;-49
2021/05/31 10:54:46;;;;;;;35.70;16.77;;;17.60;80.40;;;;;;5066530;28;20036;-53
2021/05/31 10:57:14;;;;;;;33.72;19.63;;;17.50;78.90;;;;;;5069337;28;20032;-53
2021/05/31 10:59:49;;;;;;;34.05;24.15;;;17.60;79.30;;;;;;5060477;28;20036;-60
2021/05/31 11:02:28;;;;;;;39.85;28.65;;;17.70;79.20;;;;;;5067949;28;20028;-62
2021/05/31 11:05:15;;;;;;;45.47;31.25;;;17.70;79.20;;;;;;5067071;28;20047;-58
2021/05/31 11:07:43;;;;;;;48.90;33.78;;;17.70;78.80;;;;;;5069671;28;20028;-58
2021/05/31 11:10:16;;;;;;;39.90;31.58;;;17.70;78.30;;;;;;5064867;28;20077;-50
2021/05/31 11:12:45;;;;;;;45.92;31.85;;;17.70;78.00;;;;;;5064136;28;20074;-56
2021/05/31 11:15:14;;;;;;;46.05;35.78;;;17.70;77.90;;;;;;5069047;28;20024;-52
2021/05/31 11:17:53;;;;;;;53.70;37.25;;;17.70;77.60;;;;;;5068405;28;20024;-49
2021/05/31 11:20:22;;;;;;;44.25;34.53;;;17.70;77.60;;;;;;5062690;28;20028;-59
2021/05/31 11:23:03;;;;;;;42.28;32.03;;;17.60;77.90;;;;;;5073221;28;20039;-50
2021/05/31 11:25:33;;;;;;;37.72;32.15;;;17.60;77.70;;;;;;5071359;28;20046;-47
2021/05/31 11:28:03;;;;;;;44.03;32.72;;;17.60;77.50;;;;;;5074648;28;20028;-45
2021/05/31 11:30:34;;;;;;;41.85;30.98;;;17.60;77.10;;;;;;5068619;28;20029;-52
2021/05/31 11:33:04;;;;;;;40.55;30.83;;;17.60;77.00;;;;;;5074270;28;20099;-46
2021/05/31 11:35:35;;;;;;;40.83;29.73;;;17.60;76.70;;;;;;5073725;28;20116;-54
2021/05/31 11:38:03;;;;;;;34.92;28.65;;;17.50;76.70;;;;;;5073540;28;20024;-45
2021/05/31 11:40:36;;;;;;;36.58;28.10;;;17.50;76.40;;;;;;5071611;28;20083;-42
2021/05/31 11:43:06;;;;;;;38.13;28.55;;;17.40;76.10;;;;;;5072713;28;20063;-46
2021/05/31 11:45:37;;;;;;;37.75;26.58;;;17.40;76.10;;;;;;5072556;28;20020;-46
2021/05/31 11:48:13;;;;;;;33.28;26.15;;;17.40;75.90;;;;;;5073355;28;20108;-56
2021/05/31 11:50:42;;;;;;;29.52;24.70;;;17.40;75.80;;;;;;5069480;28;20021;-50
2021/05/31 11:53:15;;;;;;;28.40;24.80;;;17.40;75.80;;;;;;5072580;28;20028;-48
2021/05/31 11:55:43;;;;;;;31.15;24.83;;;17.30;75.70;;;;;;5073317;28;20016;-45
2021/05/31 11:58:11;;;;;;;29.80;23.52;;;17.30;75.60;;;;;;5073288;28;20025;-47
2021/05/31 12:00:42;;;;;;;33.08;23.98;;;17.30;75.50;;;;;;5067000;28;20025;-49
2021/05/31 12:03:26;;;;;;;28.48;22.25;;;17.20;75.40;;;;;;5073189;28;20070;-44
2021/05/31 12:05:57;;;;;;;30.40;22.95;;;17.20;75.40;;;;;;5073375;28;20698;-48
2021/05/31 12:08:25;;;;;;;31.50;22.48;;;17.20;75.30;;;;;;5072380;28;20097;-53
2021/05/31 12:10:52;;;;;;;34.92;22.35;;;17.20;75.20;;;;;;5069021;28;20552;-49
2021/05/31 12:13:29;;;;;;;30.25;21.25;;;17.20;75.10;;;;;;5071448;28;20036;-47
2021/05/31 12:15:56;;;;;;;24.00;20.75;;;17.20;75.00;;;;;;5072220;28;20054;-45
2021/05/31 12:18:25;;;;;;;28.08;19.58;;;17.10;74.90;;;;;;5072357;28;20519;-49
2021/05/31 12:21:02;;;;;;;26.70;20.38;;;17.10;74.80;;;;;;5069490;28;20028;-55
2021/05/31 12:23:30;;;;;;;26.67;19.85;;;17.10;74.70;;;;;;5072039;28;20123;-54
2021/05/31 12:26:08;;;;;;;25.45;19.95;;;17.10;74.70;;;;;;5070594;28;20029;-59
2021/05/31 12:28:37;;;;;;;30.80;19.63;;;17.10;74.60;;;;;;5072033;28;20017;-61
2021/05/31 12:31:06;;;;;;;24.58;19.27;;;17.10;74.50;;;;;;5067633;28;20560;-52
2021/05/31 12:33:33;;;;;;;23.55;19.02;;;17.00;74.30;;;;;;5068660;28;20154;-52
2021/05/31 12:36:04;;;;;;;25.65;18.58;;;17.00;74.30;;;;;;5072272;28;20074;-53
2021/05/31 12:38:31;;;;;;;27.48;18.70;;;17.00;74.30;;;;;;5069411;28;20036;-62
2021/05/31 12:40:59;;;;;;;27.85;17.95;;;16.90;74.70;;;;;;5069497;28;20129;-57
2021/05/31 12:43:35;;;;;;;26.40;17.88;;;16.90;74.90;;;;;;5072493;28;20373;-44
2021/05/31 12:46:05;;;;;;;26.27;17.42;;;16.80;74.50;;;;;;5067168;28;20087;-50
2021/05/31 12:48:33;;;;;;;27.73;17.95;;;16.80;74.50;;;;;;5067939;28;20021;-49
2021/05/31 12:51:12;;;;;;;21.63;16.75;;;16.80;74.70;;;;;;5068965;28;20037;-46
2021/05/31 12:53:40;;;;;;;25.63;16.58;;;16.80;74.90;;;;;;5072209;28;20025;-51
2021/05/31 12:56:08;;;;;;;23.70;16.25;;;16.80;74.90;;;;;;5071896;28;20025;-56
2021/05/31 12:58:36;;;;;;;21.70;16.27;;;16.70;74.80;;;;;;5071925;28;20028;-52